Time;durP1;ratioP1;P1;durP2;ratioP2;P2;SDS_P1;SDS_P2;PMS_P1;PMS_P2;Temp;Humidity;BMP_temperature;BMP_pressure;BME280_temperature;BME280_humidity;BME280_pressure;Samples;Min_cycle;Max_cycle;Signal;HPM_P1;HPM_P2
2023/05/16 00:02:02;;;;;;;2.97;2.67;;;23.60;66.00;;;;;;5058355;28;20951;-66
2023/05/16 00:04:31;;;;;;;2.87;2.67;;;23.60;66.00;;;;;;5065938;28;20462;-66
2023/05/16 00:07:00;;;;;;;3.07;2.80;;;23.50;66.00;;;;;;5069446;28;20458;-65
2023/05/16 00:09:28;;;;;;;2.80;2.50;;;23.60;66.00;;;;;;5058542;28;20962;-66
2023/05/16 00:11:56;;;;;;;2.97;2.77;;;23.50;66.00;;;;;;5073177;28;20957;-66
2023/05/16 00:14:26;;;;;;;3.93;3.50;;;23.50;66.00;;;;;;5070373;28;20489;-66
2023/05/16 00:16:57;;;;;;;2.77;2.57;;;23.50;66.00;;;;;;5065574;28;20475;-66
2023/05/16 00:19:28;;;;;;;3.07;2.87;;;23.50;65.90;;;;;;5060451;28;20472;-66
2023/05/16 00:21:57;;;;;;;3.17;2.77;;;23.50;65.90;;;;;;5064760;28;21325;-65
2023/05/16 00:24:25;;;;;;;3.13;2.87;;;23.50;65.90;;;;;;5066031;28;20481;-66
2023/05/16 00:26:53;;;;;;;2.97;2.70;;;23.50;65.90;;;;;;5066245;28;20574;-66
2023/05/16 00:29:23;;;;;;;3.10;2.83;;;23.50;65.90;;;;;;5052710;28;20488;-65
2023/05/16 00:31:51;;;;;;;2.90;2.70;;;23.50;65.90;;;;;;5061060;28;20466;-65
2023/05/16 00:34:21;;;;;;;6.30;3.83;;;23.50;65.90;;;;;;5061254;28;21276;-66
2023/05/16 00:36:54;;;;;;;3.43;3.13;;;23.50;65.90;;;;;;5060305;28;20486;-66
2023/05/16 00:39:22;;;;;;;2.80;2.60;;;23.50;65.90;;;;;;5045804;28;20462;-65
2023/05/16 00:41:50;;;;;;;3.20;3.00;;;23.50;65.90;;;;;;5057200;28;20817;-66
2023/05/16 00:44:18;;;;;;;3.30;3.00;;;23.50;65.90;;;;;;5061718;28;20503;-65
2023/05/16 00:46:47;;;;;;;2.73;2.53;;;23.50;65.90;;;;;;5055101;28;21009;-66
2023/05/16 00:49:15;;;;;;;2.77;2.57;;;23.50;65.90;;;;;;5064823;28;20487;-65
2023/05/16 00:51:43;;;;;;;2.93;2.43;;;23.50;65.90;;;;;;5054007;28;20483;-66
2023/05/16 00:54:13;;;;;;;2.57;2.37;;;23.50;65.90;;;;;;5063851;28;20459;-66
2023/05/16 00:56:41;;;;;;;2.70;2.57;;;23.50;65.90;;;;;;5052016;28;20566;-66
2023/05/16 00:59:10;;;;;;;3.30;3.10;;;23.50;65.90;;;;;;5066716;28;20467;-66
2023/05/16 01:01:40;;;;;;;3.10;2.80;;;23.50;65.90;;;;;;5056242;28;20468;-66
2023/05/16 01:04:08;;;;;;;3.60;3.30;;;23.50;65.90;;;;;;5076456;28;20481;-65
2023/05/16 01:06:37;;;;;;;3.70;2.87;;;23.50;65.90;;;;;;5050168;28;20469;-66
2023/05/16 01:09:06;;;;;;;2.90;2.70;;;23.40;65.90;;;;;;5072712;28;20544;-66
2023/05/16 01:11:45;;;;;;;2.67;2.47;;;23.40;66.00;;;;;;5047472;28;20464;-65
2023/05/16 01:14:24;;;;;;;4.47;3.07;;;23.40;66.00;;;;;;5051266;28;20492;-66
2023/05/16 01:17:04;;;;;;;2.50;2.33;;;23.40;66.00;;;;;;5045150;28;20470;-66
2023/05/16 01:19:47;;;;;;;2.87;2.50;;;23.40;66.00;;;;;;5056219;28;20487;-66
2023/05/16 01:22:26;;;;;;;3.13;2.93;;;23.40;66.00;;;;;;5062499;28;20456;-66
2023/05/16 01:25:06;;;;;;;2.80;2.60;;;23.40;66.00;;;;;;5065992;28;20522;-66
2023/05/16 01:27:38;;;;;;;3.50;3.20;;;23.40;66.00;;;;;;5068241;28;20475;-66
2023/05/16 01:30:25;;;;;;;2.80;2.60;;;23.40;66.00;;;;;;5044023;28;20472;-66
2023/05/16 01:32:53;;;;;;;2.80;2.60;;;23.40;66.00;;;;;;5067710;28;20552;-66
2023/05/16 01:35:22;;;;;;;3.20;2.90;;;23.40;66.00;;;;;;5046189;28;20886;-66
2023/05/16 01:37:57;;;;;;;2.70;2.50;;;23.40;66.00;;;;;;5065668;28;20490;-66
2023/05/16 01:40:34;;;;;;;2.80;2.60;;;23.40;66.00;;;;;;5068205;28;20466;-67
2023/05/16 01:43:10;;;;;;;2.80;2.60;;;23.40;66.00;;;;;;5066826;28;20522;-66
2023/05/16 01:45:43;;;;;;;2.83;2.63;;;23.40;66.00;;;;;;5051378;28;20563;-66
2023/05/16 01:48:17;;;;;;;4.13;3.13;;;23.40;66.00;;;;;;5060404;28;20468;-66
2023/05/16 01:50:52;;;;;;;2.43;2.23;;;23.40;66.00;;;;;;5051106;28;21014;-66
2023/05/16 01:53:25;;;;;;;3.47;3.17;;;23.40;65.90;;;;;;5048394;28;20974;-67
2023/05/16 01:55:57;;;;;;;2.90;2.70;;;23.40;66.00;;;;;;5049065;28;20945;-66
2023/05/16 01:58:30;;;;;;;3.00;2.80;;;23.40;65.90;;;;;;5058999;28;20497;-66
2023/05/16 02:01:02;;;;;;;2.90;2.70;;;23.30;66.00;;;;;;5046029;28;20519;-66
2023/05/16 02:03:30;;;;;;;2.40;2.30;;;23.30;66.00;;;;;;5062268;28;20470;-66
2023/05/16 02:05:59;;;;;;;3.10;2.90;;;23.40;65.90;;;;;;5048555;28;20468;-66
2023/05/16 02:08:28;;;;;;;2.93;2.23;;;23.30;65.90;;;;;;5060089;28;20456;-66
2023/05/16 02:10:57;;;;;;;2.10;2.00;;;23.30;65.90;;;;;;5051339;28;20992;-66
2023/05/16 02:13:26;;;;;;;2.70;2.50;;;23.30;65.90;;;;;;5061277;28;20874;-66
2023/05/16 02:15:54;;;;;;;2.47;2.27;;;23.30;65.90;;;;;;5041573;28;20468;-66
2023/05/16 02:18:23;;;;;;;2.30;2.20;;;23.30;65.80;;;;;;5060439;28;20515;-65
2023/05/16 02:20:52;;;;;;;2.07;1.97;;;23.30;65.80;;;;;;5058065;28;21042;-65
2023/05/16 02:23:20;;;;;;;2.80;2.60;;;23.30;65.80;;;;;;5065597;28;20491;-65
2023/05/16 02:25:48;;;;;;;2.87;2.67;;;23.30;65.80;;;;;;5052274;28;20499;-66
2023/05/16 02:28:17;;;;;;;2.80;2.60;;;23.30;65.80;;;;;;5048026;28;20546;-66
2023/05/16 02:30:46;;;;;;;2.33;2.23;;;23.30;65.80;;;;;;5062943;28;20467;-66
2023/05/16 02:33:14;;;;;;;2.60;2.40;;;23.30;65.80;;;;;;5062990;28;20466;-65
2023/05/16 02:35:42;;;;;;;2.50;2.30;;;23.30;65.80;;;;;;5062036;28;20462;-65
2023/05/16 02:38:16;;;;;;;2.40;2.30;;;23.30;65.80;;;;;;5040422;28;20573;-66
2023/05/16 02:40:44;;;;;;;2.53;2.33;;;23.30;65.80;;;;;;5063860;28;20462;-66
2023/05/16 02:43:13;;;;;;;3.03;2.83;;;23.30;65.80;;;;;;5072484;28;20585;-67
2023/05/16 02:45:42;;;;;;;2.70;2.50;;;23.30;65.80;;;;;;5061171;28;20530;-66
2023/05/16 02:48:12;;;;;;;3.03;2.47;;;23.30;65.80;;;;;;5054493;28;21043;-66
2023/05/16 02:50:41;;;;;;;2.73;2.53;;;23.30;65.80;;;;;;5052614;28;20466;-66
2023/05/16 02:53:09;;;;;;;2.33;2.23;;;23.30;65.80;;;;;;5040684;28;20460;-66
2023/05/16 02:55:37;;;;;;;2.90;2.70;;;23.30;65.80;;;;;;5066714;28;20487;-66
2023/05/16 02:58:06;;;;;;;2.47;2.30;;;23.30;65.80;;;;;;5056002;28;20597;-66
2023/05/16 03:00:34;;;;;;;2.80;2.60;;;23.30;65.80;;;;;;5052926;28;20461;-65
2023/05/16 03:03:03;;;;;;;2.53;2.33;;;23.30;65.80;;;;;;5051513;28;20459;-66
2023/05/16 03:05:32;;;;;;;2.70;2.50;;;23.30;65.80;;;;;;5033237;28;21025;-66
2023/05/16 03:08:00;;;;;;;2.57;2.37;;;23.30;65.80;;;;;;5042320;28;20500;-66
2023/05/16 03:10:29;;;;;;;2.30;2.20;;;23.30;65.80;;;;;;5061985;28;20962;-66
2023/05/16 03:12:57;;;;;;;2.57;2.47;;;23.30;65.80;;;;;;5061089;28;20558;-66
2023/05/16 03:15:25;;;;;;;2.30;2.20;;;23.30;65.80;;;;;;5066410;28;20550;-65
2023/05/16 03:17:54;;;;;;;2.30;2.10;;;23.30;65.80;;;;;;5053674;28;21076;-65
2023/05/16 03:20:23;;;;;;;2.77;2.57;;;23.30;65.80;;;;;;5066896;28;20455;-66
2023/05/16 03:22:53;;;;;;;2.23;2.13;;;23.20;65.80;;;;;;5062153;28;20460;-66
2023/05/16 03:25:21;;;;;;;2.43;2.23;;;23.30;65.80;;;;;;5051153;28;20722;-66
2023/05/16 03:27:49;;;;;;;2.30;2.10;;;23.20;65.80;;;;;;5045909;28;20483;-66
2023/05/16 03:30:19;;;;;;;2.30;2.13;;;23.20;65.80;;;;;;5051008;28;20575;-66
2023/05/16 03:32:48;;;;;;;2.93;2.47;;;23.20;65.80;;;;;;5063497;28;20955;-66
2023/05/16 03:35:16;;;;;;;2.60;2.40;;;23.20;65.80;;;;;;5053364;28;20456;-66
2023/05/16 03:37:44;;;;;;;2.70;2.50;;;23.20;65.80;;;;;;5037467;28;20481;-66
2023/05/16 03:40:14;;;;;;;3.30;2.30;;;23.20;65.80;;;;;;5063475;28;20455;-66
2023/05/16 03:42:42;;;;;;;2.63;2.43;;;23.20;65.80;;;;;;5057085;28;20962;-66
2023/05/16 03:45:12;;;;;;;2.83;2.30;;;23.20;65.80;;;;;;5059927;28;20824;-66
2023/05/16 03:47:40;;;;;;;2.50;2.30;;;23.20;65.80;;;;;;5064611;28;20554;-66
2023/05/16 03:50:09;;;;;;;2.77;2.57;;;23.20;65.80;;;;;;5052500;28;20976;-66
2023/05/16 03:52:38;;;;;;;2.70;2.50;;;23.20;65.80;;;;;;5058715;28;20531;-65
2023/05/16 03:55:08;;;;;;;2.60;2.27;;;23.20;65.80;;;;;;5057536;28;20495;-66
2023/05/16 03:57:38;;;;;;;2.40;2.20;;;23.20;65.80;;;;;;5059474;28;20481;-65
2023/05/16 04:00:07;;;;;;;2.50;2.30;;;23.20;65.80;;;;;;5058585;28;20464;-65
2023/05/16 04:02:40;;;;;;;3.57;2.50;;;23.20;65.80;;;;;;5063316;28;20448;-66
2023/05/16 04:05:10;;;;;;;2.23;2.13;;;23.20;65.80;;;;;;5065225;28;20492;-66
2023/05/16 04:07:38;;;;;;;3.63;2.40;;;23.20;65.80;;;;;;5067973;28;20454;-66
2023/05/16 04:10:07;;;;;;;2.47;2.37;;;23.20;65.80;;;;;;5068105;28;20493;-66
2023/05/16 04:12:36;;;;;;;2.50;2.40;;;23.20;65.80;;;;;;5057607;28;20548;-65
2023/05/16 04:15:06;;;;;;;2.20;2.10;;;23.20;65.80;;;;;;5061739;28;20461;-66
2023/05/16 04:17:35;;;;;;;2.00;1.90;;;23.30;65.90;;;;;;5060515;28;20472;-65
2023/05/16 04:20:05;;;;;;;3.03;2.73;;;23.30;65.80;;;;;;5063592;28;20463;-66
2023/05/16 04:22:34;;;;;;;2.47;2.27;;;23.30;65.80;;;;;;5060508;28;20455;-66
2023/05/16 04:25:03;;;;;;;2.67;2.47;;;23.30;65.80;;;;;;5069816;28;20453;-65
2023/05/16 04:27:31;;;;;;;2.43;2.30;;;23.30;65.80;;;;;;5059485;28;21014;-66
2023/05/16 04:30:01;;;;;;;2.67;2.47;;;23.30;65.70;;;;;;5056960;28;20551;-66
2023/05/16 04:32:29;;;;;;;2.70;2.50;;;23.30;65.70;;;;;;5067341;28;20545;-65
2023/05/16 04:34:57;;;;;;;2.27;2.07;;;23.30;65.70;;;;;;5056024;28;20467;-66
2023/05/16 04:37:25;;;;;;;2.53;2.33;;;23.30;65.70;;;;;;5062121;28;20448;-66
2023/05/16 04:39:54;;;;;;;2.50;2.30;;;23.40;65.60;;;;;;5055820;28;20459;-66
2023/05/16 04:42:23;;;;;;;2.53;2.43;;;23.30;65.60;;;;;;5067893;28;20458;-66
2023/05/16 04:44:51;;;;;;;2.43;2.23;;;23.40;65.60;;;;;;5065610;28;20472;-66
2023/05/16 04:47:21;;;;;;;2.40;2.30;;;23.30;65.60;;;;;;5057346;28;20550;-67
2023/05/16 04:49:49;;;;;;;2.37;2.17;;;23.30;65.60;;;;;;5058129;28;20454;-66
2023/05/16 04:52:19;;;;;;;3.23;2.57;;;23.30;65.60;;;;;;5062631;28;20455;-66
2023/05/16 04:54:51;;;;;;;3.30;2.30;;;23.30;65.70;;;;;;5059386;28;20452;-66
2023/05/16 04:57:19;;;;;;;2.30;1.80;;;23.30;65.70;;;;;;5064596;28;20489;-66
2023/05/16 04:59:47;;;;;;;2.23;2.13;;;23.30;65.70;;;;;;5065277;28;20475;-66
2023/05/16 05:02:15;;;;;;;2.27;2.13;;;23.30;65.60;;;;;;5064090;28;20528;-66
2023/05/16 05:04:45;;;;;;;2.23;2.13;;;23.30;65.70;;;;;;5061922;28;20504;-66
2023/05/16 05:07:14;;;;;;;2.00;1.90;;;23.30;65.70;;;;;;5062234;28;20464;-66
2023/05/16 05:09:42;;;;;;;2.50;2.30;;;23.30;65.70;;;;;;5069035;28;21177;-65
2023/05/16 05:12:12;;;;;;;2.40;2.30;;;23.30;65.70;;;;;;5077614;28;20471;-66
2023/05/16 05:14:40;;;;;;;7.83;3.00;;;23.30;65.80;;;;;;5043091;28;20987;-66
2023/05/16 05:17:08;;;;;;;2.37;2.20;;;23.30;65.80;;;;;;5059362;28;20461;-66
2023/05/16 05:19:36;;;;;;;3.17;2.97;;;23.30;65.80;;;;;;5061889;28;20472;-66
2023/05/16 05:22:06;;;;;;;4.40;1.77;;;23.30;65.80;;;;;;5054608;28;20454;-66
2023/05/16 05:24:35;;;;;;;2.23;2.13;;;23.30;65.80;;;;;;5058453;28;20460;-65
2023/05/16 05:27:03;;;;;;;4.87;2.10;;;23.30;65.80;;;;;;5068607;28;20496;-65
2023/05/16 05:29:31;;;;;;;2.43;2.23;;;23.30;65.80;;;;;;5051729;28;20472;-66
2023/05/16 05:32:00;;;;;;;2.67;2.47;;;23.30;65.80;;;;;;5060388;28;20489;-66
2023/05/16 05:34:28;;;;;;;2.37;2.17;;;23.30;65.80;;;;;;5047768;28;20963;-66
2023/05/16 05:36:56;;;;;;;2.70;2.50;;;23.30;65.80;;;;;;5058143;28;20456;-66
2023/05/16 05:39:26;;;;;;;2.23;2.10;;;23.30;65.80;;;;;;5066544;28;20561;-65
2023/05/16 05:41:54;;;;;;;2.67;2.47;;;23.30;65.80;;;;;;5063652;28;20475;-65
2023/05/16 05:44:22;;;;;;;2.27;2.10;;;23.30;65.80;;;;;;5052558;28;20496;-66
2023/05/16 05:46:51;;;;;;;2.57;2.20;;;23.30;65.80;;;;;;5061642;28;20550;-65
2023/05/16 05:49:19;;;;;;;4.97;2.87;;;23.30;65.80;;;;;;5053518;28;20985;-65
2023/05/16 05:51:50;;;;;;;2.50;2.30;;;23.30;65.70;;;;;;5057479;28;20462;-65
2023/05/16 05:54:19;;;;;;;2.10;2.00;;;23.30;65.70;;;;;;5054996;28;20543;-65
2023/05/16 05:56:48;;;;;;;3.97;2.13;;;23.30;65.70;;;;;;5063003;28;20544;-65
2023/05/16 05:59:16;;;;;;;3.23;2.20;;;23.30;65.70;;;;;;5052161;28;20563;-65
2023/05/16 06:01:45;;;;;;;2.37;2.07;;;23.30;65.60;;;;;;5054913;28;20486;-65
2023/05/16 06:04:13;;;;;;;1.87;1.77;;;23.30;65.60;;;;;;5052465;28;20486;-65
2023/05/16 06:06:42;;;;;;;2.50;2.30;;;23.30;65.60;;;;;;5041398;28;20866;-65
2023/05/16 06:09:10;;;;;;;3.20;2.10;;;23.30;65.50;;;;;;5060782;28;20459;-65
2023/05/16 06:11:38;;;;;;;6.63;2.50;;;23.30;65.50;;;;;;5058218;28;20486;-66
2023/05/16 06:14:07;;;;;;;2.10;2.00;;;23.40;65.40;;;;;;5061779;28;20455;-66
2023/05/16 06:16:36;;;;;;;2.30;2.20;;;23.40;65.30;;;;;;5055721;28;20542;-66
2023/05/16 06:19:04;;;;;;;2.20;2.10;;;23.40;65.30;;;;;;5063456;28;20479;-67
2023/05/16 06:21:33;;;;;;;2.93;2.73;;;23.50;65.20;;;;;;5066790;28;20972;-67
2023/05/16 06:24:02;;;;;;;3.10;2.20;;;23.50;65.20;;;;;;5056189;28;20523;-67
2023/05/16 06:26:30;;;;;;;2.37;2.17;;;23.50;65.20;;;;;;5056476;28;20998;-67
2023/05/16 06:28:58;;;;;;;2.20;2.10;;;23.50;65.20;;;;;;5065276;28;20454;-66
2023/05/16 06:31:27;;;;;;;4.80;2.57;;;23.50;65.30;;;;;;5066377;28;20553;-67
2023/05/16 06:33:56;;;;;;;2.67;2.47;;;23.50;65.30;;;;;;5053377;28;20513;-67
2023/05/16 06:36:24;;;;;;;3.87;2.10;;;23.50;65.40;;;;;;5055190;28;20552;-67
2023/05/16 06:38:52;;;;;;;2.43;2.23;;;23.50;65.50;;;;;;5050356;28;20841;-67
2023/05/16 06:41:20;;;;;;;2.77;2.50;;;23.50;65.50;;;;;;5033555;28;20544;-67
2023/05/16 06:43:48;;;;;;;3.63;2.90;;;23.50;65.60;;;;;;5040780;28;21063;-67
2023/05/16 06:46:16;;;;;;;3.13;2.93;;;23.50;65.60;;;;;;5064490;28;20462;-67
2023/05/16 06:48:46;;;;;;;3.00;2.67;;;23.50;65.60;;;;;;5053405;28;20490;-67
2023/05/16 06:51:14;;;;;;;2.93;2.73;;;23.50;65.70;;;;;;5056041;28;20467;-67
2023/05/16 06:53:43;;;;;;;2.43;2.23;;;23.50;65.70;;;;;;5048125;28;20817;-67
2023/05/16 06:56:11;;;;;;;2.60;2.50;;;23.50;65.70;;;;;;5061194;28;20454;-67
2023/05/16 06:58:39;;;;;;;3.60;2.63;;;23.50;65.70;;;;;;5050995;28;25039;-67
2023/05/16 07:01:07;;;;;;;2.93;2.63;;;23.50;65.70;;;;;;5057783;28;20502;-66
2023/05/16 07:03:36;;;;;;;2.90;2.70;;;23.50;65.70;;;;;;5055716;28;21007;-67
2023/05/16 07:06:06;;;;;;;3.43;2.57;;;23.50;65.70;;;;;;5066971;28;20465;-67
2023/05/16 07:08:35;;;;;;;2.70;2.50;;;23.50;65.70;;;;;;5065846;28;20452;-67
2023/05/16 07:11:04;;;;;;;2.93;2.70;;;23.50;65.70;;;;;;5055579;28;20980;-67
2023/05/16 07:13:32;;;;;;;5.50;3.00;;;23.50;65.70;;;;;;5065049;28;20965;-68
2023/05/16 07:16:03;;;;;;;2.70;2.50;;;23.50;65.70;;;;;;5064194;28;20554;-67
2023/05/16 07:18:31;;;;;;;3.30;3.10;;;23.50;65.60;;;;;;5064082;28;20509;-67
2023/05/16 07:21:00;;;;;;;4.87;2.90;;;23.50;65.60;;;;;;5069777;28;20508;-66
2023/05/16 07:23:29;;;;;;;3.57;2.97;;;23.50;65.60;;;;;;5061324;28;20505;-66
2023/05/16 07:25:59;;;;;;;3.00;2.80;;;23.50;65.60;;;;;;5046903;28;20491;-67
2023/05/16 07:28:28;;;;;;;3.17;2.97;;;23.50;65.50;;;;;;5044076;28;20530;-66
2023/05/16 07:30:57;;;;;;;2.70;2.50;;;23.50;65.50;;;;;;5064522;28;20448;-66
2023/05/16 07:33:26;;;;;;;3.90;2.87;;;23.50;65.50;;;;;;5064564;28;20462;-66
2023/05/16 07:35:54;;;;;;;2.67;2.47;;;23.50;65.50;;;;;;5069721;28;20459;-67
2023/05/16 07:38:44;;;;;;;4.23;3.13;;;23.50;65.40;;;;;;5078262;28;20439;-66
2023/05/16 07:41:12;;;;;;;4.00;2.53;;;23.50;65.40;;;;;;5062308;28;20477;-67
2023/05/16 07:43:41;;;;;;;2.90;2.70;;;23.60;65.40;;;;;;5069765;28;20478;-67
2023/05/16 07:46:09;;;;;;;3.10;2.90;;;23.60;65.40;;;;;;5054158;28;20456;-66
2023/05/16 07:48:38;;;;;;;3.03;2.83;;;23.60;65.30;;;;;;5081611;28;20442;-67
2023/05/16 07:51:06;;;;;;;2.87;2.67;;;23.60;65.30;;;;;;5066635;28;20452;-66
2023/05/16 07:53:34;;;;;;;3.83;2.97;;;23.60;65.20;;;;;;5062863;28;20448;-66
2023/05/16 07:56:05;;;;;;;3.10;2.90;;;23.60;65.20;;;;;;5065882;28;20468;-67
2023/05/16 07:58:33;;;;;;;2.97;2.77;;;23.70;65.20;;;;;;5066428;28;20445;-66
2023/05/16 08:01:01;;;;;;;3.43;3.13;;;23.70;65.20;;;;;;5067676;28;20477;-66
2023/05/16 08:03:30;;;;;;;5.10;4.60;;;23.70;65.20;;;;;;5067577;28;20491;-67
2023/05/16 08:05:58;;;;;;;4.17;3.80;;;23.70;65.20;;;;;;5069758;28;20488;-66
2023/05/16 08:08:26;;;;;;;3.90;3.60;;;23.80;65.20;;;;;;5070284;28;20448;-67
2023/05/16 08:10:55;;;;;;;3.73;3.33;;;23.80;65.10;;;;;;5070262;28;20444;-66
2023/05/16 08:13:24;;;;;;;4.33;4.00;;;23.80;65.00;;;;;;5068716;28;20818;-66
2023/05/16 08:15:52;;;;;;;5.23;4.87;;;23.80;64.90;;;;;;5069572;28;20467;-67
2023/05/16 08:18:21;;;;;;;4.20;3.80;;;23.80;65.00;;;;;;5070137;28;20461;-67
2023/05/16 08:20:50;;;;;;;4.60;4.20;;;23.80;65.00;;;;;;5069893;28;20503;-67
2023/05/16 08:23:18;;;;;;;4.57;4.27;;;23.80;64.90;;;;;;5074326;28;20442;-66
2023/05/16 08:25:47;;;;;;;4.47;4.17;;;23.80;64.90;;;;;;5072750;28;20493;-66
2023/05/16 08:28:15;;;;;;;4.03;3.63;;;23.80;64.90;;;;;;5056975;28;20459;-67
2023/05/16 08:30:45;;;;;;;4.40;4.10;;;23.80;64.90;;;;;;5072995;28;20441;-67
2023/05/16 08:33:15;;;;;;;4.93;4.50;;;23.80;64.90;;;;;;5072420;28;20534;-67
2023/05/16 08:35:43;;;;;;;4.77;4.43;;;23.80;64.90;;;;;;5067421;28;21378;-67
2023/05/16 08:38:12;;;;;;;5.30;4.17;;;23.80;64.90;;;;;;5076941;28;20445;-67
2023/05/16 08:40:41;;;;;;;4.60;4.30;;;23.80;64.90;;;;;;5065139;28;20474;-67
2023/05/16 08:43:10;;;;;;;4.60;4.20;;;23.80;64.80;;;;;;5061854;28;20487;-66
2023/05/16 08:45:40;;;;;;;4.80;4.40;;;23.80;64.80;;;;;;5066326;28;20450;-67
2023/05/16 08:48:11;;;;;;;5.10;4.70;;;23.80;64.80;;;;;;5069597;28;20463;-66
2023/05/16 08:50:41;;;;;;;3.80;3.60;;;23.80;64.80;;;;;;5069979;28;20468;-66
2023/05/16 08:53:11;;;;;;;4.60;4.20;;;23.80;64.70;;;;;;5075056;28;20455;-66
2023/05/16 08:55:42;;;;;;;4.00;3.70;;;23.70;64.70;;;;;;5070532;28;20979;-67
2023/05/16 08:58:11;;;;;;;3.93;3.63;;;23.80;64.70;;;;;;5066156;28;20467;-66
2023/05/16 09:00:40;;;;;;;4.03;3.73;;;23.70;64.80;;;;;;5058890;28;20506;-66
2023/05/16 09:03:10;;;;;;;4.50;4.20;;;23.70;64.80;;;;;;5057215;28;20465;-66
2023/05/16 09:05:38;;;;;;;4.23;3.90;;;23.70;64.90;;;;;;5060274;28;20557;-67
2023/05/16 09:08:07;;;;;;;4.20;3.90;;;23.70;64.80;;;;;;5045110;28;20446;-65
2023/05/16 09:10:35;;;;;;;4.47;4.17;;;23.70;64.90;;;;;;5064081;28;20280;-65
2023/05/16 09:13:04;;;;;;;4.20;3.90;;;23.70;65.00;;;;;;5072258;28;20454;-65
2023/05/16 09:15:33;;;;;;;4.00;3.70;;;23.80;65.00;;;;;;5068119;28;20465;-65
2023/05/16 09:18:02;;;;;;;3.63;3.33;;;23.80;65.10;;;;;;5065159;28;20460;-65
2023/05/16 09:20:32;;;;;;;4.43;4.13;;;23.80;65.10;;;;;;5065875;28;20508;-66
2023/05/16 09:23:00;;;;;;;4.50;4.00;;;23.80;65.10;;;;;;5070528;28;20462;-65
2023/05/16 09:25:30;;;;;;;3.67;3.37;;;23.80;65.10;;;;;;5066753;28;20461;-66
2023/05/16 09:28:01;;;;;;;4.40;3.73;;;23.80;65.10;;;;;;5062922;28;20461;-66
2023/05/16 09:30:33;;;;;;;4.13;3.57;;;23.90;64.90;;;;;;5066039;28;20960;-68
2023/05/16 09:33:02;;;;;;;3.43;3.20;;;23.90;64.90;;;;;;5044268;28;20859;-68
2023/05/16 09:35:32;;;;;;;4.00;3.70;;;23.90;64.90;;;;;;5062997;28;20597;-68
2023/05/16 09:38:03;;;;;;;4.30;4.00;;;23.90;64.90;;;;;;5048666;28;20461;-68
2023/05/16 09:40:31;;;;;;;3.87;3.57;;;23.90;64.80;;;;;;5065690;28;20482;-68
2023/05/16 09:43:04;;;;;;;3.87;3.60;;;23.90;64.80;;;;;;5057971;28;20465;-69
2023/05/16 09:45:34;;;;;;;3.60;3.40;;;24.00;64.60;;;;;;5063357;28;20946;-68
2023/05/16 09:48:05;;;;;;;4.00;3.70;;;24.00;64.60;;;;;;5059857;28;21077;-69
2023/05/16 09:50:36;;;;;;;3.77;3.53;;;24.00;64.60;;;;;;5058273;28;20464;-68
2023/05/16 09:53:05;;;;;;;3.67;3.47;;;24.00;64.60;;;;;;5058808;28;21051;-69
2023/05/16 09:55:34;;;;;;;4.70;4.40;;;24.00;64.60;;;;;;5061576;28;20471;-67
2023/05/16 09:58:02;;;;;;;3.80;3.50;;;24.00;64.60;;;;;;5064711;28;20523;-68
2023/05/16 10:00:32;;;;;;;3.80;3.50;;;24.00;64.60;;;;;;5060341;28;20478;-67
2023/05/16 10:03:02;;;;;;;3.60;3.30;;;24.00;64.60;;;;;;5067217;28;20458;-68
2023/05/16 10:05:36;;;;;;;4.00;3.70;;;24.00;64.40;;;;;;5067945;28;20453;-67
2023/05/16 10:08:05;;;;;;;3.20;3.00;;;24.10;64.40;;;;;;5070891;28;20447;-68
2023/05/16 10:10:37;;;;;;;4.63;4.33;;;24.00;64.40;;;;;;5061866;28;20497;-68
2023/05/16 10:13:08;;;;;;;8.70;4.27;;;24.00;64.40;;;;;;5057924;28;20464;-67
2023/05/16 10:15:38;;;;;;;4.30;3.97;;;24.10;64.30;;;;;;5056019;28;20500;-68
2023/05/16 10:18:11;;;;;;;3.90;3.50;;;24.10;64.30;;;;;;5062571;28;20456;-68
2023/05/16 10:20:44;;;;;;;4.03;3.73;;;24.10;64.40;;;;;;5065816;28;20510;-69
2023/05/16 10:23:17;;;;;;;6.27;3.40;;;24.10;64.20;;;;;;5065820;28;20450;-67
2023/05/16 10:25:47;;;;;;;4.17;3.97;;;24.10;64.30;;;;;;5064405;28;20965;-69
2023/05/16 10:28:16;;;;;;;4.43;4.10;;;24.10;64.40;;;;;;5064934;28;20452;-72
2023/05/16 10:30:45;;;;;;;4.33;3.97;;;24.10;64.40;;;;;;5066748;28;20458;-68
2023/05/16 10:33:16;;;;;;;3.87;3.67;;;24.10;64.30;;;;;;5064515;28;20461;-68
2023/05/16 10:35:46;;;;;;;4.93;3.77;;;24.10;64.40;;;;;;5070275;28;20486;-67
2023/05/16 10:38:17;;;;;;;3.80;3.57;;;24.10;64.50;;;;;;5059642;28;20469;-69
2023/05/16 10:40:47;;;;;;;5.87;3.83;;;24.10;64.50;;;;;;5064072;28;20466;-68
2023/05/16 10:43:24;;;;;;;5.53;4.50;;;24.10;64.50;;;;;;5061733;28;20966;-67
2023/05/16 10:45:57;;;;;;;4.53;4.13;;;24.10;64.60;;;;;;5060799;28;21090;-68
2023/05/16 10:48:30;;;;;;;4.20;3.90;;;24.20;64.60;;;;;;5070070;28;20466;-68
2023/05/16 10:51:01;;;;;;;4.40;3.60;;;24.20;64.60;;;;;;5064352;28;20521;-67
2023/05/16 10:53:32;;;;;;;4.60;3.20;;;24.20;64.60;;;;;;5074596;28;20458;-68
2023/05/16 10:56:09;;;;;;;4.07;3.77;;;24.20;64.60;;;;;;5057754;28;20460;-69
2023/05/16 10:58:46;;;;;;;4.90;3.50;;;24.30;64.60;;;;;;5071306;28;20557;-67
2023/05/16 11:01:22;;;;;;;4.10;3.57;;;24.30;64.60;;;;;;5061541;28;20511;-71
2023/05/16 11:04:08;;;;;;;4.43;4.03;;;24.30;64.50;;;;;;5058367;28;20464;-71
2023/05/16 11:06:55;;;;;;;3.23;3.03;;;24.30;64.40;;;;;;5066308;28;20455;-70
2023/05/16 11:09:27;;;;;;;12.00;3.83;;;24.30;64.40;;;;;;5063710;28;20465;-70
2023/05/16 11:12:05;;;;;;;5.17;3.83;;;24.30;64.30;;;;;;5069673;28;20466;-70
2023/05/16 11:14:41;;;;;;;4.90;4.20;;;24.30;64.40;;;;;;5057634;28;20464;-71
2023/05/16 11:17:11;;;;;;;4.37;4.07;;;24.30;64.40;;;;;;5069521;28;21056;-71
2023/05/16 11:19:42;;;;;;;3.80;3.50;;;24.30;64.30;;;;;;5062411;28;20461;-71
2023/05/16 11:22:23;;;;;;;4.70;3.60;;;24.30;64.40;;;;;;5054314;28;20477;-71
2023/05/16 11:24:54;;;;;;;5.07;3.77;;;24.20;64.40;;;;;;5049202;28;20454;-71
2023/05/16 11:27:25;;;;;;;4.53;3.63;;;24.20;64.40;;;;;;5048635;28;20501;-71
2023/05/16 11:29:54;;;;;;;4.37;3.97;;;24.20;64.40;;;;;;5048776;28;20514;-71
2023/05/16 11:32:23;;;;;;;5.30;4.10;;;24.20;64.40;;;;;;5057839;28;20570;-71
2023/05/16 11:34:53;;;;;;;6.43;4.33;;;24.20;64.50;;;;;;5055568;28;20486;-70
2023/05/16 11:37:23;;;;;;;5.57;3.63;;;24.20;64.50;;;;;;5071336;28;20457;-71
2023/05/16 11:39:51;;;;;;;5.10;4.70;;;24.20;64.50;;;;;;5052963;28;20446;-71
2023/05/16 11:42:19;;;;;;;6.43;5.23;;;24.20;64.40;;;;;;5065428;28;20467;-72
2023/05/16 11:44:47;;;;;;;5.40;4.53;;;24.20;64.40;;;;;;5049453;28;20461;-72
2023/05/16 11:47:15;;;;;;;5.50;4.23;;;24.20;64.40;;;;;;5062082;28;20458;-72
2023/05/16 11:49:44;;;;;;;4.40;4.10;;;24.20;64.30;;;;;;5061552;28;20482;-72
2023/05/16 11:52:15;;;;;;;4.10;3.80;;;24.20;64.40;;;;;;5064063;28;20464;-72
2023/05/16 11:54:44;;;;;;;4.00;3.60;;;24.20;64.40;;;;;;5057837;28;20454;-71
2023/05/16 11:57:13;;;;;;;4.87;4.47;;;24.20;64.40;;;;;;5064374;28;20806;-72
2023/05/16 11:59:41;;;;;;;6.43;3.70;;;24.20;64.40;;;;;;5053359;28;20857;-72
2023/05/16 12:02:10;;;;;;;4.10;3.70;;;24.20;64.40;;;;;;5066116;28;20838;-72
2023/05/16 12:04:38;;;;;;;4.30;3.90;;;24.10;64.40;;;;;;5067570;28;20488;-72
2023/05/16 12:07:07;;;;;;;4.13;3.70;;;24.10;64.50;;;;;;5070401;28;20461;-72
2023/05/16 12:09:35;;;;;;;4.30;3.90;;;24.10;64.50;;;;;;5068330;28;20529;-72
2023/05/16 12:12:07;;;;;;;3.63;3.33;;;24.10;64.40;;;;;;5070617;28;20514;-68
2023/05/16 12:14:35;;;;;;;6.50;4.07;;;24.10;64.50;;;;;;5066519;28;20541;-66
2023/05/16 12:17:04;;;;;;;4.33;3.93;;;24.10;64.80;;;;;;5064099;28;20538;-66
2023/05/16 12:19:32;;;;;;;4.00;3.70;;;24.10;64.90;;;;;;5067162;28;20488;-66
2023/05/16 12:22:01;;;;;;;7.90;3.80;;;24.10;65.00;;;;;;5066120;28;20469;-66
2023/05/16 12:24:31;;;;;;;4.33;3.60;;;24.10;65.10;;;;;;5069610;28;20972;-67
2023/05/16 12:26:59;;;;;;;3.83;3.53;;;24.10;65.10;;;;;;5068425;28;20544;-68
2023/05/16 12:29:31;;;;;;;3.80;3.50;;;24.10;65.10;;;;;;5057304;28;20462;-66
2023/05/16 12:32:00;;;;;;;3.70;3.37;;;24.20;65.20;;;;;;5058969;28;20513;-66
2023/05/16 12:34:29;;;;;;;4.20;3.87;;;24.20;65.20;;;;;;5048963;28;20820;-65
2023/05/16 12:37:00;;;;;;;3.80;3.50;;;24.20;65.10;;;;;;5073830;28;20467;-66
2023/05/16 12:39:37;;;;;;;4.37;3.33;;;24.30;65.10;;;;;;5082407;28;21214;-66
2023/05/16 12:42:08;;;;;;;3.70;3.40;;;24.30;65.10;;;;;;5074676;28;20480;-67
2023/05/16 12:44:38;;;;;;;3.90;3.60;;;24.30;65.10;;;;;;5066844;28;20546;-66
2023/05/16 12:47:12;;;;;;;3.70;3.40;;;24.40;65.00;;;;;;5067262;28;20466;-66
2023/05/16 12:49:46;;;;;;;3.13;2.93;;;24.40;65.00;;;;;;5072669;28;20461;-78
2023/05/16 12:52:19;;;;;;;3.70;3.40;;;24.40;65.00;;;;;;5072133;28;20512;-67
2023/05/16 12:54:50;;;;;;;4.50;4.00;;;24.40;65.00;;;;;;5080725;28;20466;-67
2023/05/16 12:57:19;;;;;;;3.43;3.23;;;24.40;64.90;;;;;;5076598;28;20454;-67
2023/05/16 12:59:50;;;;;;;3.37;3.07;;;24.50;64.90;;;;;;5063765;28;20647;-69
2023/05/16 13:02:18;;;;;;;3.20;3.00;;;24.50;64.90;;;;;;5057547;28;20524;-67